Map

Track Data

SID SEASON NUMBER BASIN SUBBASIN NAME ISO_TIME NATURE LAT LON WMO_WIND WMO_PRES WMO_AGENCY TRACK_TYPE DIST2LAND LANDFALL IFLAG USA_AGENCY USA_ATCF_ID USA_LAT USA_LON USA_RECORD USA_STATUS USA_WIND USA_PRES USA_SSHS USA_R34_NE USA_R34_SE USA_R34_SW USA_R34_NW USA_R50_NE USA_R50_SE USA_R50_SW USA_R50_NW USA_R64_NE USA_R64_SE USA_R64_SW USA_R64_NW USA_POCI USA_ROCI USA_RMW USA_EYE TOKYO_LAT TOKYO_LON TOKYO_GRADE TOKYO_WIND TOKYO_PRES TOKYO_R50_DIR TOKYO_R50_LONG TOKYO_R50_SHORT TOKYO_R30_DIR TOKYO_R30_LONG TOKYO_R30_SHORT TOKYO_LAND CMA_LAT CMA_LON CMA_CAT CMA_WIND CMA_PRES HKO_LAT HKO_LON HKO_CAT HKO_WIND HKO_PRES NEWDELHI_LAT NEWDELHI_LON NEWDELHI_GRADE NEWDELHI_WIND NEWDELHI_PRES NEWDELHI_CI NEWDELHI_DP NEWDELHI_POCI REUNION_LAT REUNION_LON REUNION_TYPE REUNION_WIND REUNION_PRES REUNION_TNUM REUNION_CI REUNION_RMW REUNION_R34_NE REUNION_R34_SE REUNION_R34_SW REUNION_R34_NW REUNION_R50_NE REUNION_R50_SE REUNION_R50_SW REUNION_R50_NW REUNION_R64_NE REUNION_R64_SE REUNION_R64_SW REUNION_R64_NW BOM_LAT BOM_LON BOM_TYPE BOM_WIND BOM_PRES BOM_TNUM BOM_CI BOM_RMW BOM_R34_NE BOM_R34_SE BOM_R34_SW BOM_R34_NW BOM_R50_NE BOM_R50_SE BOM_R50_SW BOM_R50_NW BOM_R64_NE BOM_R64_SE BOM_R64_SW BOM_R64_NW BOM_ROCI BOM_POCI BOM_EYE BOM_POS_METHOD BOM_PRES_METHOD NADI_LAT NADI_LON NADI_CAT NADI_WIND NADI_PRES WELLINGTON_LAT WELLINGTON_LON WELLINGTON_WIND WELLINGTON_PRES DS824_LAT DS824_LON DS824_STAGE DS824_WIND DS824_PRES TD9636_LAT TD9636_LON TD9636_STAGE TD9636_WIND TD9636_PRES TD9635_LAT TD9635_LON TD9635_WIND TD9635_PRES TD9635_ROCI NEUMANN_LAT NEUMANN_LON NEUMANN_CLASS NEUMANN_WIND NEUMANN_PRES MLC_LAT MLC_LON MLC_CLASS MLC_WIND MLC_PRES USA_GUST BOM_GUST BOM_GUST_PER REUNION_GUST REUNION_GUST_PER USA_SEAHGT USA_SEARAD_NE USA_SEARAD_SE USA_SEARAD_SW USA_SEARAD_NW STORM_SPEED STORM_DIR
1916153N20111 1916 27 WP MM NOT_NAMED 1916-06-01 10:00:00 NR 20.4000 110.500 main 10 10 __________O___ -1 20.4000 110.500 4 6 96
1916153N20111 1916 27 WP MM NOT_NAMED 1916-06-01 12:00:00 NR 20.3803 110.708 main 23 23 __________P___ -1 20.3803 110.708 4 6 94
1916153N20111 1916 27 WP MM NOT_NAMED 1916-06-01 15:00:00 NR 20.3641 111.017 main 45 45 __________P___ -1 20.3641 111.017 4 6 90
1916153N20111 1916 27 WP MM NOT_NAMED 1916-06-01 18:00:00 NR 20.3831 111.318 main 68 68 __________P___ -1 20.3831 111.318 4 6 80
1916153N20111 1916 27 WP MM NOT_NAMED 1916-06-01 21:00:00 NR 20.4586 111.607 main 99 99 __________P___ -1 20.4586 111.607 4 6 72
1916153N20111 1916 27 WP MM NOT_NAMED 1916-06-01 22:00:00 NR 20.5000 111.700 main 107 102 __________O___ -1 20.5000 111.700 4 6 60
1916153N20111 1916 27 WP MM NOT_NAMED 1916-06-02 00:00:00 NR 20.6094 111.880 main 105 93 __________P___ -1 20.6094 111.880 4 6 52
1916153N20111 1916 27 WP MM NOT_NAMED 1916-06-02 03:00:00 NR 20.8243 112.139 main 93 67 __________P___ -1 20.8243 112.139 4 7 46
1916153N20111 1916 27 WP MM NOT_NAMED 1916-06-02 06:00:00 NR 21.0722 112.385 main 67 54 __________P___ -1 21.0722 112.385 4 7 42
1916153N20111 1916 27 WP MM NOT_NAMED 1916-06-02 09:00:00 NR 21.3218 112.622 main 54 45 __________P___ -1 21.3218 112.622 4 7 42
1916153N20111 1916 27 WP MM NOT_NAMED 1916-06-02 10:00:00 NR 21.4000 112.700 main 45 39 __________O___ -1 21.4000 112.700 4 6 47
1916153N20111 1916 27 WP MM NOT_NAMED 1916-06-02 12:00:00 NR 21.5333 112.861 main 44 22 __________P___ -1 21.5333 112.861 4 6 49
1916153N20111 1916 27 WP MM NOT_NAMED 1916-06-02 15:00:00 NR 21.7207 113.096 main 24 15 __________P___ -1 21.7207 113.096 4 6 50
1916153N20111 1916 27 WP MM NOT_NAMED 1916-06-02 18:00:00 NR 21.8933 113.321 main 22 11 __________P___ -1 21.8933 113.321 4 5 51
1916153N20111 1916 27 WP MM NOT_NAMED 1916-06-02 21:00:00 NR 22.0508 113.533 main 11 11 __________P___ -1 22.0508 113.533 4 5 51
1916153N20111 1916 27 WP MM NOT_NAMED 1916-06-02 22:00:00 NR 22.1000 113.600 main 15 15 __________O___ -1 22.1000 113.600 4 5 52
1916153N20111 1916 27 WP MM NOT_NAMED 1916-06-03 00:00:00 NR 22.1999 113.736 main 20 11 __________P___ -1 22.1999 113.736 4 5 52
1916153N20111 1916 27 WP MM NOT_NAMED 1916-06-03 03:00:00 NR 22.3374 113.928 main 11 0 __________P___ -1 22.3374 113.928 4 4 52
1916153N20111 1916 27 WP MM NOT_NAMED 1916-06-03 06:00:00 NR 22.4600 114.101 main 0 0 __________P___ -1 22.4600 114.101 4 4 53
1916153N20111 1916 27 WP MM NOT_NAMED 1916-06-03 09:00:00 NR 22.5675 114.254 main 0 0 __________P___ -1 22.5675 114.254 4 3 53
1916153N20111 1916 27 WP MM NOT_NAMED 1916-06-03 10:00:00 NR 22.6000 114.300 main 0 0 __________O___ -1 22.6000 114.300 4 3 51
1916153N20111 1916 27 WP MM NOT_NAMED 1916-06-03 12:00:00 NR 22.6602 114.384 main 0 0 __________P___ -1 22.6602 114.384 4 3 52
1916153N20111 1916 27 WP MM NOT_NAMED 1916-06-03 15:00:00 NR 22.7404 114.492 main 0 0 __________P___ -1 22.7404 114.492 4 2 51
1916153N20111 1916 27 WP MM NOT_NAMED 1916-06-03 18:00:00 NR 22.8119 114.586 main 0 0 __________P___ -1 22.8119 114.586 4 2 50
1916153N20111 1916 27 WP MM NOT_NAMED 1916-06-03 21:00:00 NR 22.8783 114.672 main 0 0 __________P___ -1 22.8783 114.672 4 2 50
1916153N20111 1916 27 WP MM NOT_NAMED 1916-06-03 22:00:00 NR 22.9000 114.700 main 0 __________O___ -1 22.9000 114.700 4 2 0

Digital Typhoon Data and Search

About IBTrACS Database

This database is a web-friendly format of International Best Track Archive for Climate Stewardship (IBTrACS), a global best track data archive curated by NOAA dating back to 1842.

Updated: 2021-12-03